createdAt,value
2023-04-21T00:01:00.101Z,82.76
2023-04-21T00:03:28.166Z,83.92
2023-04-21T00:05:58.773Z,84.31
2023-04-21T00:08:26.961Z,84.53
2023-04-21T00:10:53.433Z,85.42
2023-04-21T00:13:19.930Z,85.17
2023-04-21T00:15:46.437Z,86.10
2023-04-21T00:18:14.279Z,86.34
2023-04-21T00:20:41.513Z,86.87
2023-04-21T00:23:10.853Z,87.17
2023-04-21T00:25:37.434Z,87.17
2023-04-21T00:28:03.890Z,86.96
2023-04-21T00:30:30.425Z,87.47
2023-04-21T00:32:56.962Z,88.56
2023-04-21T00:35:23.433Z,88.59
2023-04-21T00:37:50.272Z,88.69
2023-04-21T00:40:16.829Z,89.25
2023-04-21T00:42:43.241Z,88.82
2023-04-21T00:45:09.944Z,89.73
2023-04-21T00:47:36.515Z,89.50
2023-04-21T00:50:04.270Z,90.27
2023-04-21T00:52:31.133Z,90.73
2023-04-21T00:54:57.796Z,90.47
2023-04-21T00:57:24.611Z,91.40
2023-04-21T00:59:51.990Z,91.22
2023-04-21T01:02:19.905Z,91.14
2023-04-21T01:04:46.511Z,92.30
2023-04-21T01:07:13.133Z,91.95
2023-04-21T01:09:40.082Z,92.85
2023-04-21T01:12:09.881Z,92.68
2023-04-21T01:14:38.129Z,93.80
2023-04-21T01:17:06.052Z,93.78
2023-04-21T01:19:35.721Z,93.91
2023-04-21T01:22:03.739Z,93.68
2023-04-21T01:24:41.367Z,94.15
2023-04-21T01:27:14.273Z,94.95
2023-04-21T01:29:42.222Z,95.41
2023-04-21T01:32:11.143Z,95.31
2023-04-21T01:34:38.438Z,95.12
2023-04-21T01:37:12.033Z,95.52
2023-04-21T01:39:43.726Z,95.61
2023-04-21T01:42:11.287Z,95.36
2023-04-21T01:44:38.284Z,95.81
2023-04-21T01:47:04.984Z,96.09
2023-04-21T01:49:31.481Z,96.02
2023-04-21T01:51:57.899Z,96.38
2023-04-21T01:54:24.386Z,96.87
2023-04-21T01:56:50.851Z,96.96
2023-04-21T01:59:20.498Z,96.86
2023-04-21T02:01:47.030Z,96.87
2023-04-21T02:04:13.739Z,97.69
2023-04-21T02:06:40.559Z,97.44
2023-04-21T02:09:07.020Z,97.53
2023-04-21T02:11:34.104Z,97.49
2023-04-21T02:14:00.932Z,98.02
2023-04-21T02:16:27.505Z,98.30
2023-04-21T02:18:56.839Z,98.68
2023-04-21T02:21:24.199Z,98.97
2023-04-21T02:23:51.397Z,98.34
2023-04-21T02:26:18.659Z,98.97
2023-04-21T02:28:45.147Z,98.59
2023-04-21T02:31:11.710Z,98.94
2023-04-21T02:33:38.113Z,99.38
2023-04-21T02:36:05.011Z,99.06
2023-04-21T02:38:31.453Z,99.15
2023-04-21T02:41:01.297Z,99.21
2023-04-21T02:43:27.824Z,99.36
2023-04-21T02:45:54.223Z,99.34
2023-04-21T02:48:23.051Z,99.31
2023-04-21T02:50:50.685Z,99.43
2023-04-21T02:53:17.155Z,100.00
2023-04-21T02:55:43.986Z,99.94
2023-04-21T02:58:11.090Z,100.00
2023-04-21T03:00:37.804Z,100.00
2023-04-21T03:03:04.697Z,100.00
2023-04-21T03:05:31.209Z,100.00
2023-04-21T03:07:57.692Z,100.00
2023-04-21T03:10:24.137Z,100.00
2023-04-21T03:12:50.633Z,100.00
2023-04-21T03:15:17.127Z,100.00
2023-04-21T03:17:43.645Z,100.00
2023-04-21T03:20:11.554Z,100.00
2023-04-21T03:22:38.979Z,100.00
2023-04-21T03:25:07.369Z,100.00
2023-04-21T03:27:34.654Z,100.00
2023-04-21T03:30:01.230Z,100.00
2023-04-21T03:32:27.852Z,100.00
2023-04-21T03:34:54.356Z,100.00
2023-04-21T03:37:22.411Z,100.00
2023-04-21T03:39:48.845Z,100.00
2023-04-21T03:42:15.451Z,100.00
2023-04-21T03:44:42.470Z,100.00
2023-04-21T03:47:08.895Z,100.00
2023-04-21T03:49:35.430Z,100.00
2023-04-21T03:52:01.977Z,100.00
2023-04-21T03:54:28.508Z,100.00
2023-04-21T03:56:55.033Z,100.00
2023-04-21T03:59:21.779Z,100.00
2023-04-21T04:01:48.520Z,100.00
2023-04-21T04:04:15.431Z,100.00
2023-04-21T04:06:42.125Z,100.00
2023-04-21T04:09:09.112Z,100.00
2023-04-21T04:11:35.703Z,100.00
2023-04-21T04:14:02.205Z,100.00
2023-04-21T04:16:29.195Z,100.00
2023-04-21T04:18:55.892Z,100.00
2023-04-21T04:21:22.351Z,100.00
2023-04-21T04:23:51.723Z,100.00
2023-04-21T04:26:18.848Z,100.00
2023-04-21T04:28:45.974Z,100.00
2023-04-21T04:31:13.622Z,100.00
2023-04-21T04:33:43.942Z,100.00
2023-04-21T04:36:12.040Z,100.00
2023-04-21T04:38:38.690Z,100.00
2023-04-21T04:41:06.295Z,100.00
2023-04-21T04:43:33.546Z,100.00
2023-04-21T04:46:00.993Z,100.00
2023-04-21T04:48:27.400Z,100.00
2023-04-21T04:50:53.973Z,100.00
2023-04-21T04:53:20.393Z,100.00
2023-04-21T04:55:47.215Z,100.00
2023-04-21T04:58:14.298Z,100.00
2023-04-21T05:00:41.000Z,100.00
2023-04-21T05:03:07.629Z,100.00
2023-04-21T05:05:34.156Z,100.00
2023-04-21T05:08:00.662Z,100.00
2023-04-21T05:10:27.171Z,100.00
2023-04-21T05:12:53.588Z,100.00
2023-04-21T05:15:20.076Z,100.00
2023-04-21T05:17:46.526Z,100.00
2023-04-21T05:20:13.058Z,100.00
2023-04-21T05:22:40.453Z,100.00
2023-04-21T05:25:07.680Z,100.00
2023-04-21T05:27:34.372Z,100.00
2023-04-21T05:30:00.880Z,100.00
2023-04-21T05:32:27.592Z,100.00
2023-04-21T05:34:54.082Z,100.00
2023-04-21T05:37:21.083Z,100.00
2023-04-21T05:39:47.515Z,100.00
2023-04-21T05:42:13.957Z,100.00
2023-04-21T05:44:41.628Z,100.00
2023-04-21T05:47:08.143Z,100.00
2023-04-21T05:49:34.655Z,100.00
2023-04-21T05:52:01.268Z,100.00
2023-04-21T05:54:28.663Z,100.00
2023-04-21T05:56:55.115Z,100.00
2023-04-21T05:59:21.723Z,100.00
2023-04-21T06:01:48.194Z,100.00
2023-04-21T06:04:14.877Z,100.00
2023-04-21T06:06:41.481Z,100.00
2023-04-21T06:09:08.070Z,100.00
2023-04-21T06:11:34.507Z,100.00
2023-04-21T06:14:01.865Z,100.00
2023-04-21T06:16:29.397Z,100.00
2023-04-21T06:18:57.940Z,100.00
2023-04-21T06:21:24.432Z,100.00
2023-04-21T06:23:51.252Z,100.00
2023-04-21T06:26:17.809Z,100.00
2023-04-21T06:28:44.363Z,100.00
2023-04-21T06:31:15.352Z,100.00
2023-04-21T06:33:42.382Z,100.00
2023-04-21T06:36:09.001Z,100.00
2023-04-21T06:38:38.463Z,100.00
2023-04-21T06:41:05.627Z,100.00
2023-04-21T06:43:32.585Z,100.00
2023-04-21T06:45:59.003Z,100.00
2023-04-21T06:48:26.384Z,100.00
2023-04-21T06:50:52.960Z,100.00
2023-04-21T06:53:21.648Z,100.00
2023-04-21T06:55:48.631Z,100.00
2023-04-21T06:58:15.672Z,100.00
2023-04-21T07:00:42.471Z,100.00
2023-04-21T07:03:09.002Z,100.00
2023-04-21T07:05:35.485Z,100.00
2023-04-21T07:08:02.047Z,100.00
2023-04-21T07:10:30.674Z,100.00
2023-04-21T07:12:57.138Z,100.00
2023-04-21T07:15:23.561Z,100.00
2023-04-21T07:17:50.177Z,100.00
2023-04-21T07:20:18.550Z,100.00
2023-04-21T07:22:45.005Z,100.00
2023-04-21T07:25:12.454Z,100.00
2023-04-21T07:27:39.336Z,100.00
2023-04-21T07:30:06.667Z,100.00
2023-04-21T07:32:33.920Z,100.00
2023-04-21T07:35:01.875Z,100.00
2023-04-21T07:37:28.909Z,100.00
2023-04-21T07:39:57.578Z,100.00
2023-04-21T07:42:28.392Z,100.00
2023-04-21T07:44:59.122Z,100.00
2023-04-21T07:47:25.681Z,100.00
2023-04-21T07:49:52.151Z,100.00
2023-04-21T07:52:18.694Z,100.00
2023-04-21T07:54:45.334Z,100.00
2023-04-21T07:57:12.582Z,100.00
2023-04-21T07:59:39.050Z,100.00
2023-04-21T08:02:05.738Z,100.00
2023-04-21T08:04:32.369Z,100.00
2023-04-21T08:06:59.184Z,100.00
2023-04-21T08:09:26.566Z,100.00
2023-04-21T08:11:53.905Z,100.00
2023-04-21T08:14:20.947Z,100.00
2023-04-21T08:16:47.712Z,99.87
2023-04-21T08:19:15.088Z,99.96
2023-04-21T08:21:41.512Z,100.00
2023-04-21T08:24:08.666Z,100.00
2023-04-21T08:26:35.816Z,99.39
2023-04-21T08:29:04.385Z,98.99
2023-04-21T08:31:33.926Z,98.80
2023-04-21T08:34:03.051Z,98.43
2023-04-21T08:36:30.602Z,98.36
2023-04-21T08:39:00.583Z,96.95
2023-04-21T08:41:27.158Z,96.85
2023-04-21T08:43:53.711Z,96.69
2023-04-21T08:46:21.537Z,96.90
2023-04-21T08:48:48.158Z,96.14
2023-04-21T08:51:21.962Z,96.25
2023-04-21T08:53:48.488Z,95.60
2023-04-21T08:56:15.508Z,95.43
2023-04-21T08:58:42.215Z,95.57
2023-04-21T09:01:08.802Z,95.75
2023-04-21T09:03:35.532Z,96.11
2023-04-21T09:06:08.433Z,94.94
2023-04-21T09:08:42.107Z,95.06
2023-04-21T09:11:08.648Z,94.66
2023-04-21T09:13:36.570Z,93.14
2023-04-21T09:16:08.514Z,93.85
2023-04-21T09:18:37.478Z,93.88
2023-04-21T09:21:11.624Z,92.77
2023-04-21T09:23:41.709Z,91.52
2023-04-21T09:26:08.713Z,91.80
2023-04-21T09:28:35.430Z,91.61
2023-04-21T09:31:02.036Z,91.51
2023-04-21T09:33:34.298Z,89.85
2023-04-21T09:36:06.092Z,88.61
2023-04-21T09:38:32.706Z,88.67
2023-04-21T09:40:59.463Z,87.74
2023-04-21T09:43:26.244Z,87.59
2023-04-21T09:45:54.445Z,88.36
2023-04-21T09:48:22.754Z,88.35
2023-04-21T09:53:21.980Z,88.04
2023-04-21T09:55:51.688Z,87.50
2023-04-21T09:58:22.549Z,86.80
2023-04-21T10:00:49.486Z,86.92
2023-04-21T10:03:18.306Z,86.38
2023-04-21T10:05:45.268Z,85.63
2023-04-21T10:08:12.238Z,85.30
2023-04-21T10:10:39.727Z,84.86
2023-04-21T10:13:07.082Z,85.79
2023-04-21T10:15:41.410Z,84.65
2023-04-21T10:18:44.204Z,83.55
2023-04-21T10:21:16.249Z,82.13
2023-04-21T10:23:44.860Z,82.25
2023-04-21T10:26:12.440Z,81.21
2023-04-21T10:28:52.224Z,81.72
2023-04-21T10:31:20.563Z,81.75
2023-04-21T10:34:05.450Z,82.33
2023-04-21T10:36:34.822Z,82.07
2023-04-21T10:39:03.817Z,80.84
2023-04-21T10:41:32.757Z,81.15
2023-04-21T10:44:12.231Z,80.59
2023-04-21T10:46:46.309Z,79.43
2023-04-21T10:49:22.085Z,79.74
2023-04-21T10:52:03.383Z,80.41
2023-04-21T10:54:36.908Z,79.91
2023-04-21T10:57:08.202Z,79.91
2023-04-21T10:59:35.926Z,80.52
2023-04-21T11:02:11.839Z,80.71
2023-04-21T11:04:45.970Z,80.13
2023-04-21T11:07:16.583Z,79.38
2023-04-21T11:09:43.942Z,79.13
2023-04-21T11:12:13.974Z,79.26
2023-04-21T11:14:43.281Z,79.30
2023-04-21T11:17:15.309Z,78.43
2023-04-21T11:19:45.263Z,78.06
2023-04-21T11:22:11.691Z,77.46
2023-04-21T11:24:38.196Z,77.92
2023-04-21T11:27:08.528Z,78.25
2023-04-21T11:29:34.944Z,78.48
2023-04-21T11:32:02.041Z,78.70
2023-04-21T11:34:28.698Z,79.03
2023-04-21T11:36:57.329Z,78.49
2023-04-21T11:39:23.756Z,78.05
2023-04-21T11:41:51.105Z,77.82
2023-04-21T11:44:36.169Z,77.41
2023-04-21T11:47:19.450Z,77.70
2023-04-21T11:49:46.509Z,77.88
2023-04-21T11:52:21.488Z,75.69
2023-04-21T11:54:48.221Z,75.88
2023-04-21T11:57:19.169Z,75.78
2023-04-21T11:59:48.724Z,73.67
2023-04-21T12:02:24.599Z,73.46
2023-04-21T12:05:10.822Z,73.28
2023-04-21T12:07:39.147Z,73.13
2023-04-21T12:10:11.885Z,73.09
2023-04-21T12:12:39.403Z,72.54
2023-04-21T12:15:11.034Z,71.89
2023-04-21T12:17:55.535Z,72.41
2023-04-21T12:20:25.323Z,71.64
2023-04-21T12:22:52.554Z,70.68
2023-04-21T12:25:19.002Z,70.65
2023-04-21T12:27:49.781Z,71.09
2023-04-21T12:30:17.042Z,71.91
2023-04-21T12:32:45.884Z,71.09
2023-04-21T12:35:12.529Z,69.72
2023-04-21T12:37:39.043Z,69.17
2023-04-21T12:40:07.048Z,69.65
2023-04-21T12:42:35.972Z,69.58
2023-04-21T12:45:05.409Z,69.86
2023-04-21T12:47:32.120Z,69.66
2023-04-21T12:49:58.654Z,69.46
2023-04-21T12:52:25.172Z,69.36
2023-04-21T12:54:51.634Z,68.88
2023-04-21T12:57:18.354Z,69.10
2023-04-21T12:59:46.399Z,69.90
2023-04-21T13:02:13.331Z,69.76
2023-04-21T13:04:42.112Z,69.91
2023-04-21T13:07:08.846Z,70.58
2023-04-21T13:09:35.864Z,70.61
2023-04-21T13:12:02.336Z,70.46
2023-04-21T13:14:29.225Z,69.30
2023-04-21T13:16:56.045Z,69.05
2023-04-21T13:19:22.813Z,68.65
2023-04-21T13:21:50.124Z,68.60
2023-04-21T13:24:17.474Z,68.88
2023-04-21T13:26:44.000Z,68.57
2023-04-21T13:29:10.677Z,69.00
2023-04-21T13:31:37.276Z,69.28
2023-04-21T13:34:03.986Z,69.73
2023-04-21T13:36:31.301Z,70.04
2023-04-21T13:38:58.956Z,69.41
2023-04-21T13:41:25.542Z,69.50
2023-04-21T13:43:52.273Z,69.23
2023-04-21T13:46:19.862Z,69.04
2023-04-21T13:48:46.408Z,68.98
2023-04-21T13:51:16.236Z,68.14
2023-04-21T13:53:45.940Z,67.94
2023-04-21T13:56:16.152Z,67.28
2023-04-21T13:58:45.645Z,66.25
2023-04-21T14:01:16.726Z,67.08
2023-04-21T14:03:44.168Z,66.99
2023-04-21T14:06:10.753Z,65.50
2023-04-21T14:08:37.270Z,66.34
2023-04-21T14:11:04.727Z,66.78
2023-04-21T14:13:37.872Z,66.19
2023-04-21T14:16:08.952Z,65.56
2023-04-21T14:18:36.429Z,64.91
2023-04-21T14:21:02.937Z,64.84
2023-04-21T14:23:29.442Z,64.18
2023-04-21T14:25:55.866Z,63.71
2023-04-21T14:28:22.431Z,63.20
2023-04-21T14:30:50.089Z,63.78
2023-04-21T14:33:19.233Z,62.41
2023-04-21T14:35:49.885Z,61.49
2023-04-21T14:38:16.307Z,61.49
2023-04-21T14:40:42.820Z,61.72
2023-04-21T14:43:11.361Z,62.30
2023-04-21T14:45:38.059Z,62.33
2023-04-21T14:48:04.657Z,61.85
2023-04-21T14:50:31.169Z,61.72
2023-04-21T14:52:57.655Z,61.30
2023-04-21T14:55:24.108Z,61.59
2023-04-21T14:57:56.757Z,61.96
2023-04-21T15:00:23.670Z,61.27
2023-04-21T15:02:50.307Z,62.37
2023-04-21T15:05:18.611Z,62.86
2023-04-21T15:07:45.364Z,63.62
2023-04-21T15:10:15.712Z,63.61
2023-04-21T15:12:44.024Z,63.91
2023-04-21T15:15:11.029Z,64.71
2023-04-21T15:17:37.695Z,65.50
2023-04-21T15:20:04.499Z,65.56
2023-04-21T15:22:33.323Z,65.02
2023-04-21T15:24:59.750Z,64.93
2023-04-21T15:27:26.313Z,64.96
2023-04-21T15:29:52.760Z,64.79
2023-04-21T15:32:19.700Z,64.53
2023-04-21T15:34:46.134Z,64.89
2023-04-21T15:37:12.738Z,65.05
2023-04-21T15:39:39.562Z,63.30
2023-04-21T15:42:06.399Z,63.29
2023-04-21T15:44:34.008Z,62.13
2023-04-21T15:47:00.833Z,62.25
2023-04-21T15:49:27.392Z,61.55
2023-04-21T15:51:53.948Z,61.59
2023-04-21T15:54:21.191Z,62.08
2023-04-21T15:56:47.708Z,62.18
2023-04-21T15:59:14.464Z,61.22
2023-04-21T16:01:41.091Z,61.35
2023-04-21T16:04:07.863Z,61.59
2023-04-21T16:06:36.106Z,61.44
2023-04-21T16:09:02.849Z,62.18
2023-04-21T16:11:29.490Z,62.11
2023-04-21T16:13:56.381Z,61.49
2023-04-21T16:16:23.019Z,61.89
2023-04-21T16:18:49.534Z,61.74
2023-04-21T16:21:16.057Z,61.64
2023-04-21T16:23:44.191Z,61.48
2023-04-21T16:26:10.728Z,61.48
2023-04-21T16:28:37.158Z,61.16
2023-04-21T16:31:04.117Z,61.39
2023-04-21T16:33:30.809Z,60.59
2023-04-21T16:35:57.740Z,60.41
2023-04-21T16:38:24.717Z,60.36
2023-04-21T16:40:51.512Z,60.32
2023-04-21T16:43:18.063Z,59.79
2023-04-21T16:45:45.087Z,59.67
2023-04-21T16:48:11.872Z,59.56
2023-04-21T16:50:38.715Z,59.80
2023-04-21T16:53:05.196Z,60.01
2023-04-21T16:55:31.739Z,60.29
2023-04-21T16:58:00.057Z,60.06
2023-04-21T17:00:27.021Z,60.46
2023-04-21T17:02:53.628Z,60.74
2023-04-21T17:05:20.389Z,60.16
2023-04-21T17:07:48.089Z,60.02
2023-04-21T17:10:14.609Z,60.43
2023-04-21T17:12:41.061Z,60.12
2023-04-21T17:15:08.199Z,60.42
2023-04-21T17:17:41.419Z,60.36
2023-04-21T17:20:13.577Z,60.94
2023-04-21T17:22:41.258Z,61.32
2023-04-21T17:25:09.422Z,61.26
2023-04-21T17:27:37.148Z,61.84
2023-04-21T17:30:05.407Z,62.26
2023-04-21T17:32:33.946Z,62.74
2023-04-21T17:35:01.039Z,62.68
2023-04-21T17:37:28.884Z,63.27
2023-04-21T17:39:55.524Z,63.51
2023-04-21T17:42:21.987Z,63.11
2023-04-21T17:44:48.632Z,63.06
2023-04-21T17:47:15.113Z,63.22
2023-04-21T17:49:41.600Z,63.86
2023-04-21T17:52:08.065Z,64.22
2023-04-21T17:54:34.650Z,65.90
2023-04-21T17:57:01.871Z,65.76
2023-04-21T17:59:28.346Z,65.06
2023-04-21T18:01:55.193Z,66.02
2023-04-21T18:04:25.796Z,66.40
2023-04-21T18:06:52.358Z,66.63
2023-04-21T18:09:19.413Z,67.42
2023-04-21T18:11:46.399Z,68.41
2023-04-21T18:14:13.510Z,71.49
2023-04-21T18:16:40.045Z,71.17
2023-04-21T18:19:06.674Z,75.01
2023-04-21T18:21:33.433Z,72.54
2023-04-21T18:24:00.551Z,75.04
2023-04-21T18:26:27.002Z,76.69
2023-04-21T18:28:58.639Z,77.43
2023-04-21T18:31:28.912Z,80.86
2023-04-21T18:33:56.206Z,82.39
2023-04-21T18:36:22.950Z,82.63
2023-04-21T18:38:49.395Z,83.40
2023-04-21T18:41:16.095Z,83.36
2023-04-21T18:43:42.682Z,83.72
2023-04-21T18:46:09.095Z,83.13
2023-04-21T18:48:35.540Z,82.49
2023-04-21T18:51:01.988Z,81.35
2023-04-21T18:53:28.493Z,81.96
2023-04-21T18:55:54.920Z,80.47
2023-04-21T18:58:21.712Z,82.30
2023-04-21T19:00:48.209Z,81.10
2023-04-21T19:03:15.017Z,81.20
2023-04-21T19:05:41.772Z,80.49
2023-04-21T19:08:11.675Z,80.85
2023-04-21T19:10:38.244Z,81.20
2023-04-21T19:13:08.110Z,81.59
2023-04-21T19:15:35.188Z,81.50
2023-04-21T19:18:01.666Z,81.25
2023-04-21T19:20:29.171Z,81.43
2023-04-21T19:22:55.726Z,82.18
2023-04-21T19:25:22.209Z,82.35
2023-04-21T19:27:48.773Z,82.45
2023-04-21T19:30:16.121Z,83.12
2023-04-21T19:32:42.600Z,82.96
2023-04-21T19:35:09.347Z,83.33
2023-04-21T19:37:36.265Z,83.19
2023-04-21T19:40:03.746Z,83.01
2023-04-21T19:42:30.887Z,82.94
2023-04-21T19:44:59.097Z,83.22
2023-04-21T19:47:25.520Z,82.78
2023-04-21T19:49:51.960Z,83.47
2023-04-21T19:52:18.503Z,83.93
2023-04-21T19:54:44.931Z,84.11
2023-04-21T19:57:11.410Z,83.81
2023-04-21T19:59:38.229Z,83.84
2023-04-21T20:02:05.116Z,83.49
2023-04-21T20:04:32.117Z,84.04
2023-04-21T20:06:58.685Z,84.84
2023-04-21T20:09:25.126Z,84.93
2023-04-21T20:11:51.587Z,84.87
2023-04-21T20:14:18.870Z,84.94
2023-04-21T20:16:47.204Z,85.40
2023-04-21T20:19:15.081Z,85.31
2023-04-21T20:21:42.377Z,85.51
2023-04-21T20:24:10.335Z,85.64
2023-04-21T20:26:37.140Z,85.34
2023-04-21T20:29:06.666Z,85.39
2023-04-21T20:31:33.311Z,85.30
2023-04-21T20:33:59.865Z,85.47
2023-04-21T20:36:27.488Z,85.79
2023-04-21T20:38:53.990Z,86.12
2023-04-21T20:41:23.217Z,86.12
2023-04-21T20:43:50.179Z,86.27
2023-04-21T20:46:18.525Z,86.41
2023-04-21T20:48:44.988Z,86.66
2023-04-21T20:51:12.224Z,86.57
2023-04-21T20:53:38.718Z,86.54
2023-04-21T20:56:05.271Z,87.10
2023-04-21T20:58:31.933Z,87.44
2023-04-21T21:00:58.406Z,86.86
2023-04-21T21:03:25.026Z,86.76
2023-04-21T21:05:53.881Z,86.99
2023-04-21T21:08:20.503Z,86.26
2023-04-21T21:10:46.936Z,86.07
2023-04-21T21:13:13.367Z,85.75
2023-04-21T21:15:39.829Z,85.58
2023-04-21T21:18:06.413Z,85.70
2023-04-21T21:20:32.981Z,85.90
2023-04-21T21:22:59.422Z,86.21
2023-04-21T21:25:26.146Z,86.51
2023-04-21T21:27:52.593Z,86.47
2023-04-21T21:30:19.180Z,86.44
2023-04-21T21:32:46.511Z,87.10
2023-04-21T21:35:13.129Z,87.23
2023-04-21T21:37:39.709Z,87.80
2023-04-21T21:40:06.987Z,87.68
2023-04-21T21:42:33.580Z,87.45
2023-04-21T21:45:00.904Z,87.66
2023-04-21T21:47:27.488Z,87.29
2023-04-21T21:49:55.908Z,87.53
2023-04-21T21:52:22.493Z,87.68
2023-04-21T21:54:48.969Z,87.87
2023-04-21T21:57:15.830Z,87.62
2023-04-21T21:59:43.261Z,88.10
2023-04-21T22:02:09.834Z,88.19
2023-04-21T22:04:36.382Z,88.36
2023-04-21T22:07:03.680Z,88.57
2023-04-21T22:09:30.444Z,88.60
2023-04-21T22:11:57.752Z,88.87
2023-04-21T22:14:24.393Z,88.96
2023-04-21T22:16:53.047Z,89.06
2023-04-21T22:19:20.245Z,89.24
2023-04-21T22:21:46.810Z,89.65
2023-04-21T22:24:13.421Z,89.70
2023-04-21T22:26:40.092Z,89.68
2023-04-21T22:29:07.095Z,89.84
2023-04-21T22:31:33.704Z,89.70
2023-04-21T22:34:00.192Z,89.42
2023-04-21T22:36:26.674Z,89.11
2023-04-21T22:38:53.101Z,89.40
2023-04-21T22:41:19.661Z,89.30
2023-04-21T22:43:46.113Z,89.40
2023-04-21T22:46:12.801Z,89.33
2023-04-21T22:48:39.740Z,89.28
2023-04-21T22:51:07.336Z,89.26
2023-04-21T22:53:33.976Z,89.17
2023-04-21T22:56:00.524Z,89.52
2023-04-21T22:58:26.978Z,89.36
2023-04-21T23:00:53.456Z,89.74
2023-04-21T23:03:20.052Z,89.49
2023-04-21T23:05:46.633Z,89.47
2023-04-21T23:08:13.516Z,89.03
2023-04-21T23:10:43.564Z,89.43
2023-04-21T23:13:10.049Z,89.74
2023-04-21T23:15:36.634Z,89.40
2023-04-21T23:18:03.200Z,89.78
2023-04-21T23:20:29.840Z,90.09
2023-04-21T23:22:56.285Z,90.42
2023-04-21T23:25:23.028Z,90.15
2023-04-21T23:27:49.747Z,90.16
2023-04-21T23:30:16.424Z,89.68
2023-04-21T23:32:45.236Z,89.91
2023-04-21T23:35:11.738Z,90.32
2023-04-21T23:37:38.114Z,90.42
2023-04-21T23:40:09.034Z,89.72
2023-04-21T23:42:36.229Z,90.29
2023-04-21T23:45:03.652Z,90.66
2023-04-21T23:47:30.392Z,90.10
2023-04-21T23:49:56.809Z,90.45
2023-04-21T23:52:23.292Z,90.41
2023-04-21T23:54:49.721Z,89.98
2023-04-21T23:57:16.230Z,90.21
2023-04-21T23:59:42.658Z,90.54
